Time;durP1;ratioP1;P1;durP2;ratioP2;P2;SDS_P1;SDS_P2;PMS_P1;PMS_P2;Temp;Humidity;BMP_temperature;BMP_pressure;BME280_temperature;BME280_humidity;BME280_pressure;Samples;Min_cycle;Max_cycle;Signal;HPM_P1;HPM_P2
2022/09/13 00:00:28;;;;;;;6.77;4.07;;;;;;;15.79;100.00;100202.94;5014083;28;20034;-73
2022/09/13 00:02:53;;;;;;;8.57;5.07;;;;;;;15.77;100.00;100189.69;4977090;28;20288;-73
2022/09/13 00:05:19;;;;;;;4.60;3.87;;;;;;;15.79;100.00;100186.81;4997104;28;20034;-72
2022/09/13 00:07:44;;;;;;;9.53;3.90;;;;;;;15.77;100.00;100178.09;5019957;28;20660;-73
2022/09/13 00:10:09;;;;;;;4.70;3.37;;;;;;;15.83;100.00;100171.91;5014209;28;20038;-73
2022/09/13 00:12:35;;;;;;;4.57;3.97;;;;;;;15.80;100.00;100140.84;4999476;28;20049;-73
2022/09/13 00:15:00;;;;;;;4.53;3.40;;;;;;;15.87;100.00;100140.81;5017409;28;20615;-73
2022/09/13 00:17:26;;;;;;;6.33;3.43;;;;;;;15.88;100.00;100134.41;5016805;28;20029;-73
2022/09/13 00:19:51;;;;;;;5.63;3.77;;;;;;;15.86;100.00;100135.66;5018509;28;20037;-73
2022/09/13 00:22:17;;;;;;;6.87;3.80;;;;;;;15.80;100.00;100131.91;5015687;28;20098;-73
2022/09/13 00:24:42;;;;;;;5.53;4.43;;;;;;;15.64;100.00;100135.88;5042734;22;20536;-76
2022/09/13 00:27:07;;;;;;;6.30;4.20;;;;;;;15.71;100.00;100195.09;4989283;28;20068;-79
2022/09/13 00:29:33;;;;;;;6.30;4.33;;;;;;;15.65;100.00;100217.44;5025684;28;20565;-78
2022/09/13 00:31:58;;;;;;;6.60;4.40;;;;;;;15.55;100.00;100234.00;4984083;28;20430;-80
2022/09/13 00:34:23;;;;;;;8.07;4.67;;;;;;;15.49;100.00;100219.50;4993399;28;20044;-81
2022/09/13 00:36:49;;;;;;;7.67;4.13;;;;;;;15.42;100.00;100221.38;4992525;28;20041;-80
2022/09/13 00:39:14;;;;;;;6.33;4.33;;;;;;;15.12;100.00;100243.25;5009274;28;20536;-79
2022/09/13 00:41:40;;;;;;;8.30;5.37;;;;;;;15.06;100.00;100256.72;4992746;28;20033;-78
2022/09/13 00:44:43;;;;;;;6.25;5.13;;;;;;;14.91;100.00;100248.81;5009325;28;20156;-77
2022/09/13 00:47:11;;;;;;;6.93;4.15;;;;;;;14.90;100.00;100271.34;4992656;28;20041;-79
2022/09/13 00:49:40;;;;;;;6.03;4.32;;;;;;;14.82;100.00;100284.94;5018520;28;20020;-79
2022/09/13 00:52:11;;;;;;;8.13;5.28;;;;;;;14.88;100.00;100293.03;5009756;28;20494;-78
2022/09/13 00:54:42;;;;;;;8.90;5.55;;;;;;;14.88;100.00;100292.22;5010156;28;20107;-78
2022/09/13 00:57:10;;;;;;;6.93;4.88;;;;;;;14.73;100.00;100295.88;4996270;28;20029;-79
2022/09/13 00:59:46;;;;;;;7.05;5.32;;;;;;;14.69;100.00;100308.06;4995870;28;20026;-80
2022/09/13 01:02:13;;;;;;;11.48;5.45;;;;;;;14.59;100.00;100314.84;5013558;28;20033;-80
2022/09/13 01:04:39;;;;;;;8.07;5.97;;;;;;;14.53;100.00;100328.00;4999865;28;20513;-81
2022/09/13 01:07:08;;;;;;;6.47;5.53;;;;;;;14.49;100.00;100310.63;4999580;28;20030;-80
2022/09/13 01:09:38;;;;;;;8.23;5.88;;;;;;;14.49;100.00;100294.53;4996530;28;20097;-80
2022/09/13 01:12:17;;;;;;;9.18;5.85;;;;;;;14.47;100.00;100284.97;5012445;28;20033;-79
2022/09/13 01:14:45;;;;;;;8.25;5.80;;;;;;;14.48;100.00;100308.13;4994553;28;20068;-79
2022/09/13 01:17:10;;;;;;;14.15;7.15;;;;;;;14.39;100.00;100331.63;4993169;28;20036;-79
2022/09/13 01:19:36;;;;;;;9.63;6.77;;;;;;;14.36;100.00;100306.00;4993991;28;20033;-80
2022/09/13 01:22:25;;;;;;;10.97;7.13;;;;;;;14.38;100.00;100296.94;4996383;28;20025;-79
2022/09/13 01:25:05;;;;;;;15.30;7.70;;;;;;;14.42;100.00;100290.13;5012023;28;20517;-79
2022/09/13 01:27:35;;;;;;;7.63;6.25;;;;;;;14.45;100.00;100284.38;4995504;28;20348;-78
2022/09/13 01:30:19;;;;;;;9.13;6.50;;;;;;;14.42;100.00;100274.00;4994662;28;20037;-78
2022/09/13 01:33:23;;;;;;;11.60;6.78;;;;;;;14.43;100.00;100278.38;4998736;28;20052;-79
2022/09/13 01:35:58;;;;;;;10.15;7.15;;;;;;;14.36;100.00;100263.03;5009731;28;20041;-78
2022/09/13 01:38:46;;;;;;;11.93;7.57;;;;;;;14.34;100.00;100265.09;4993171;28;20338;-80
2022/09/13 01:41:23;;;;;;;8.23;6.13;;;;;;;14.38;100.00;100251.28;5009365;28;20040;-79
2022/09/13 01:44:02;;;;;;;10.07;6.50;;;;;;;14.40;100.00;100258.13;4994444;28;20573;-80
2022/09/13 01:46:52;;;;;;;8.18;7.10;;;;;;;14.42;100.00;100242.63;5020000;28;20034;-78
2022/09/13 01:49:26;;;;;;;10.75;6.97;;;;;;;14.38;100.00;100232.50;5027535;28;20076;-79
2022/09/13 01:52:00;;;;;;;10.50;7.03;;;;;;;14.36;100.00;100214.69;5010206;28;20041;-78
2022/09/13 01:54:41;;;;;;;10.00;7.75;;;;;;;14.41;100.00;100205.22;5001789;28;20117;-78
2022/09/13 01:57:27;;;;;;;13.95;7.20;;;;;;;14.47;100.00;100188.28;4993247;28;20034;-78
2022/09/13 01:59:58;;;;;;;10.60;7.05;;;;;;;14.46;100.00;100186.66;5010166;28;20497;-77
2022/09/13 02:02:32;;;;;;;9.57;5.80;;;;;;;14.49;100.00;100173.66;5010055;28;20067;-79
2022/09/13 02:05:17;;;;;;;9.48;7.05;;;;;;;14.44;100.00;100161.84;4993443;28;20033;-81
2022/09/13 02:07:50;;;;;;;11.13;7.38;;;;;;;14.42;100.00;100167.44;5009778;28;20033;-80
2022/09/13 02:10:25;;;;;;;10.68;7.22;;;;;;;14.39;100.00;100167.81;4991698;28;20494;-80
2022/09/13 02:12:52;;;;;;;11.43;6.65;;;;;;;14.43;100.00;100169.06;5009986;28;20127;-79
2022/09/13 02:15:50;;;;;;;8.85;6.38;;;;;;;14.47;100.00;100161.44;4994650;28;20113;-79
2022/09/13 02:18:23;;;;;;;7.82;6.50;;;;;;;14.45;100.00;100150.09;4994542;28;20110;-79
2022/09/13 02:20:51;;;;;;;7.85;6.20;;;;;;;14.40;100.00;100152.53;5010049;28;20234;-77
2022/09/13 02:23:31;;;;;;;8.85;6.68;;;;;;;14.36;100.00;100139.50;5009682;28;20036;-78
2022/09/13 02:26:00;;;;;;;9.77;6.57;;;;;;;14.41;100.00;100141.59;4993350;28;20022;-78
2022/09/13 02:28:37;;;;;;;10.00;6.35;;;;;;;14.44;100.00;100157.28;4994215;28;20017;-79
2022/09/13 02:31:06;;;;;;;10.38;7.07;;;;;;;14.40;100.00;100152.53;5009505;28;20045;-79
2022/09/13 02:33:37;;;;;;;10.27;7.25;;;;;;;14.34;100.00;100138.88;5001694;28;20017;-79
2022/09/13 02:36:12;;;;;;;9.50;7.00;;;;;;;14.32;100.00;100153.53;5009708;28;20048;-79
2022/09/13 02:38:54;;;;;;;10.20;6.97;;;;;;;14.33;100.00;100145.28;4986804;28;20041;-79
2022/09/13 02:41:38;;;;;;;10.65;7.72;;;;;;;14.40;100.00;100145.31;5009577;28;20120;-80
2022/09/13 02:44:10;;;;;;;13.02;8.10;;;;;;;14.44;100.00;100135.00;5009490;28;20057;-81
2022/09/13 02:46:41;;;;;;;12.07;7.55;;;;;;;14.43;100.00;100128.78;5020050;28;20025;-79
2022/09/13 02:49:23;;;;;;;10.35;7.82;;;;;;;14.45;100.00;100132.09;5009195;28;20429;-78
2022/09/13 02:52:11;;;;;;;13.48;9.43;;;;;;;14.39;100.00;100121.34;5009112;28;20767;-80
2022/09/13 02:54:48;;;;;;;11.77;7.70;;;;;;;14.46;100.00;100114.13;4993763;28;20056;-79
2022/09/13 02:57:20;;;;;;;15.05;9.35;;;;;;;14.50;100.00;100108.16;5009791;28;20120;-78
2022/09/13 02:59:48;;;;;;;10.10;7.88;;;;;;;14.47;100.00;100105.03;4994031;28;20124;-79
2022/09/13 03:02:17;;;;;;;10.95;8.38;;;;;;;14.52;100.00;100084.59;4993497;28;20021;-77
2022/09/13 03:04:42;;;;;;;11.95;8.23;;;;;;;14.56;100.00;100085.03;5026806;28;20033;-78
2022/09/13 03:07:13;;;;;;;11.03;7.87;;;;;;;14.59;100.00;100084.66;4994708;28;20814;-79
2022/09/13 03:09:52;;;;;;;11.23;9.02;;;;;;;14.58;100.00;100085.66;5007910;28;20436;-79
2022/09/13 03:12:37;;;;;;;15.40;8.98;;;;;;;14.64;100.00;100082.16;5008861;28;20041;-78
2022/09/13 03:15:21;;;;;;;11.43;8.07;;;;;;;14.76;100.00;100088.56;4978905;28;20029;-79
2022/09/13 03:18:00;;;;;;;14.35;8.23;;;;;;;14.72;100.00;100079.28;5015120;28;20337;-80
2022/09/13 03:20:44;;;;;;;13.02;8.57;;;;;;;14.78;100.00;100091.88;5008062;28;20030;-79
2022/09/13 03:23:32;;;;;;;11.85;8.32;;;;;;;14.74;100.00;100096.00;5008652;28;20049;-78
2022/09/13 03:26:17;;;;;;;12.73;9.15;;;;;;;14.65;100.00;100104.47;5007938;28;20030;-79
2022/09/13 03:28:49;;;;;;;14.07;9.60;;;;;;;14.70;100.00;100113.59;5008449;28;20067;-79
2022/09/13 03:31:43;;;;;;;17.95;9.60;;;;;;;14.56;100.00;100119.97;5000020;28;20095;-80
2022/09/13 03:34:21;;;;;;;16.88;11.38;;;;;;;14.60;100.00;100123.06;4992122;28;20083;-84
2022/09/13 03:36:54;;;;;;;17.38;12.02;;;;;;;14.59;100.00;100132.19;5003003;28;20041;-79
2022/09/13 03:39:29;;;;;;;17.60;11.20;;;;;;;14.55;100.00;100142.50;5008391;28;20127;-79
2022/09/13 03:42:00;;;;;;;19.77;13.32;;;;;;;14.45;100.00;100142.03;5012866;28;20051;-80
2022/09/13 03:44:28;;;;;;;23.83;14.40;;;;;;;14.45;100.00;100158.16;5012148;28;20037;-80
2022/09/13 03:46:59;;;;;;;23.15;15.23;;;;;;;14.36;100.00;100149.44;5011841;28;20561;-82
2022/09/13 03:49:26;;;;;;;29.00;16.05;;;;;;;14.30;100.00;100166.34;5009195;28;20414;-80
2022/09/13 03:51:52;;;;;;;36.13;20.10;;;;;;;14.25;100.00;100158.06;5002777;28;20017;-80
2022/09/13 03:54:22;;;;;;;33.63;20.30;;;;;;;14.19;100.00;100162.38;4992971;28;20041;-80
2022/09/13 03:57:14;;;;;;;34.95;19.77;;;;;;;14.20;100.00;100147.94;5008701;28;20478;-80
2022/09/13 03:59:44;;;;;;;40.38;21.15;;;;;;;14.11;100.00;100155.31;5008077;28;20133;-79
2022/09/13 04:02:10;;;;;;;46.80;21.83;;;;;;;14.14;100.00;100154.09;5008911;28;20068;-82
2022/09/13 04:04:40;;;;;;;41.95;23.02;;;;;;;14.13;100.00;100155.94;4992308;28;20112;-79
2022/09/13 04:07:07;;;;;;;38.17;21.80;;;;;;;14.12;100.00;100146.25;5004709;28;20033;-79
2022/09/13 04:09:33;;;;;;;41.60;23.85;;;;;;;14.13;100.00;100144.38;5010485;28;20025;-79
2022/09/13 04:11:58;;;;;;;44.88;24.63;;;;;;;14.01;100.00;100125.34;5010379;28;20501;-81
2022/09/13 04:14:25;;;;;;;46.53;23.20;;;;;;;14.10;100.00;100139.44;5008957;28;20397;-84
2022/09/13 04:16:55;;;;;;;47.67;25.50;;;;;;;14.09;100.00;100135.94;5008111;28;20042;-80
2022/09/13 04:19:22;;;;;;;49.58;24.98;;;;;;;14.07;100.00;100134.44;5008039;28;20037;-80
2022/09/13 04:21:51;;;;;;;;;;;;;;;14.07;100.00;100134.44;4992355;28;20112;-81
2022/09/13 04:24:18;;;;;;;46.40;24.45;;;;;;;14.12;100.00;100114.03;4976812;28;20259;-80
2022/09/13 04:26:50;;;;;;;46.00;24.00;;;;;;;14.11;100.00;100108.88;5011672;28;20056;-80
2022/09/13 04:29:20;;;;;;;49.28;25.35;;;;;;;14.10;100.00;100113.41;5007113;28;20049;-80
2022/09/13 04:31:45;;;;;;;51.00;24.95;;;;;;;14.13;100.00;100113.00;5012448;28;20390;-81
2022/09/13 04:34:11;;;;;;;58.58;27.25;;;;;;;14.15;100.00;100104.75;4992040;28;20041;-80
2022/09/13 04:36:37;;;;;;;60.80;27.90;;;;;;;14.21;100.00;100111.16;5029075;28;20028;-80
2022/09/13 04:39:02;;;;;;;48.47;25.58;;;;;;;14.18;100.00;100115.09;5010109;28;20027;-80
2022/09/13 04:41:28;;;;;;;48.60;25.53;;;;;;;14.16;100.00;100111.75;4992143;28;20597;-78
2022/09/13 04:43:54;;;;;;;45.50;25.70;;;;;;;14.23;100.00;100111.78;5009503;28;20120;-82
2022/09/13 04:46:19;;;;;;;54.20;27.23;;;;;;;14.24;100.00;100100.84;5008026;28;20040;-79
2022/09/13 04:48:51;;;;;;;53.37;26.73;;;;;;;14.23;100.00;100101.88;5011165;28;20033;-80
2022/09/13 04:51:17;;;;;;;58.20;29.70;;;;;;;14.28;100.00;100098.59;5013682;28;20049;-82
2022/09/13 04:53:50;;;;;;;54.00;27.48;;;;;;;14.32;100.00;100111.41;5008407;28;20429;-81
2022/09/13 04:56:18;;;;;;;56.53;28.48;;;;;;;14.35;100.00;100111.03;5013139;28;20037;-79
2022/09/13 04:58:44;;;;;;;54.78;28.45;;;;;;;14.36;100.00;100104.59;5006320;28;20059;-82
2022/09/13 05:01:10;;;;;;;57.72;29.33;;;;;;;14.38;100.00;100108.97;5013492;28;20077;-80
2022/09/13 05:03:36;;;;;;;57.55;28.23;;;;;;;14.45;100.00;100104.44;5012305;28;20022;-79
2022/09/13 05:06:06;;;;;;;62.10;29.73;;;;;;;14.53;100.00;100105.03;5013574;28;20033;-80
2022/09/13 05:08:32;;;;;;;60.15;30.88;;;;;;;14.48;100.00;100114.75;5004602;28;20029;-80
2022/09/13 05:10:58;;;;;;;69.20;32.28;;;;;;;14.53;100.00;100125.72;5010996;28;20367;-79
2022/09/13 05:13:24;;;;;;;56.25;29.70;;;;;;;14.53;100.00;100123.03;5011238;28;20561;-78
2022/09/13 05:15:54;;;;;;;63.83;31.23;;;;;;;14.54;100.00;100122.03;4993153;28;20053;-79
2022/09/13 05:18:19;;;;;;;62.28;31.40;;;;;;;14.62;100.00;100119.16;4998054;28;20064;-82
2022/09/13 05:20:44;;;;;;;55.87;28.80;;;;;;;14.59;100.00;100118.75;4992802;28;20472;-79
2022/09/13 05:23:10;;;;;;;65.97;30.70;;;;;;;14.61;100.00;100114.81;4998515;28;20518;-80
2022/09/13 05:25:35;;;;;;;60.00;30.43;;;;;;;14.61;100.00;100112.13;5010541;28;20044;-79
2022/09/13 05:28:00;;;;;;;56.87;29.57;;;;;;;14.60;100.00;100118.53;4996225;28;20042;-79
2022/09/13 05:30:26;;;;;;;52.77;27.83;;;;;;;14.68;100.00;100121.03;4995577;28;20025;-80
2022/09/13 05:32:51;;;;;;;55.77;28.63;;;;;;;14.76;100.00;100120.81;5016820;28;20052;-79
2022/09/13 05:35:16;;;;;;;55.10;27.30;;;;;;;14.76;100.00;100112.75;5014363;28;20048;-78
2022/09/13 05:37:42;;;;;;;57.97;29.93;;;;;;;14.82;100.00;100123.72;5011672;28;20025;-78
2022/09/13 05:40:07;;;;;;;48.67;27.87;;;;;;;14.91;100.00;100125.16;4995591;28;20714;-79
2022/09/13 05:42:33;;;;;;;60.33;29.17;;;;;;;14.88;100.00;100121.03;5013132;28;20476;-79
2022/09/13 05:44:58;;;;;;;53.27;27.57;;;;;;;14.91;100.00;100122.47;5012109;28;20041;-78
2022/09/13 05:47:23;;;;;;;55.67;27.83;;;;;;;14.87;100.00;100116.72;5003858;28;20038;-77
2022/09/13 05:49:49;;;;;;;48.77;24.10;;;;;;;15.07;100.00;100127.44;4994545;28;20656;-78
2022/09/13 05:52:14;;;;;;;60.70;28.33;;;;;;;15.12;100.00;100121.44;5012287;28;20506;-79
2022/09/13 05:54:39;;;;;;;47.63;22.57;;;;;;;15.15;100.00;100126.44;5004698;28;20028;-79
2022/09/13 05:57:05;;;;;;;48.37;23.57;;;;;;;15.31;100.00;100135.91;4993045;28;20026;-80
2022/09/13 05:59:30;;;;;;;40.63;23.03;;;;;;;15.49;100.00;100133.41;5012783;28;20056;-81
2022/09/13 06:01:56;;;;;;;44.30;21.13;;;;;;;15.66;100.00;100116.81;5025216;28;20030;-80
2022/09/13 06:04:22;;;;;;;38.45;22.05;;;;;;;15.65;100.00;100099.03;5005055;28;20025;-79
2022/09/13 06:06:48;;;;;;;37.95;18.58;;;;;;;15.55;100.00;100092.22;5009833;28;20076;-79
2022/09/13 06:09:13;;;;;;;31.43;17.67;;;;;;;15.67;100.00;100095.09;5011833;28;20033;-78
2022/09/13 06:11:39;;;;;;;30.60;16.10;;;;;;;15.59;100.00;100084.53;5009666;28;20091;-83
2022/09/13 06:14:04;;;;;;;28.25;14.98;;;;;;;16.00;100.00;100086.91;5030421;28;20029;-78
2022/09/13 06:16:29;;;;;;;29.07;15.57;;;;;;;16.06;100.00;100082.56;5013615;28;20033;-78
2022/09/13 06:18:56;;;;;;;30.17;15.63;;;;;;;16.05;100.00;100083.59;4996499;28;20394;-79
2022/09/13 06:21:22;;;;;;;31.60;14.55;;;;;;;15.85;100.00;100078.31;5012155;28;20044;-79
2022/09/13 06:23:52;;;;;;;26.60;14.57;;;;;;;15.84;100.00;100076.63;5029439;28;20017;-79
2022/09/13 06:26:27;;;;;;;29.40;15.15;;;;;;;15.73;100.00;100085.38;5004257;28;20640;-78
2022/09/13 06:28:55;;;;;;;26.48;12.55;;;;;;;15.62;100.00;100089.53;5003456;28;20112;-80
2022/09/13 06:31:23;;;;;;;30.92;13.55;;;;;;;15.67;100.00;100091.59;4994169;28;20025;-79
2022/09/13 06:33:54;;;;;;;22.98;12.18;;;;;;;15.69;100.00;100100.28;5002809;28;20461;-77
2022/09/13 06:36:19;;;;;;;24.50;12.20;;;;;;;15.62;100.00;100094.91;5009825;28;20045;-77
2022/09/13 06:38:46;;;;;;;25.97;14.87;;;;;;;15.79;100.00;100111.44;5020055;28;20014;-79
2022/09/13 06:41:19;;;;;;;26.05;11.95;;;;;;;15.95;100.00;100108.28;5009015;28;20453;-79
2022/09/13 06:43:46;;;;;;;22.20;11.73;;;;;;;16.10;100.00;100117.94;5009652;28;20398;-78
2022/09/13 06:46:16;;;;;;;23.88;12.18;;;;;;;16.30;100.00;100118.69;5027064;28;20031;-79
2022/09/13 06:48:43;;;;;;;23.00;12.68;;;;;;;16.23;100.00;100107.94;5009945;28;20031;-79
2022/09/13 06:51:17;;;;;;;22.42;11.38;;;;;;;16.11;100.00;100103.44;5026553;28;20568;-78
2022/09/13 06:53:44;;;;;;;23.40;10.10;;;;;;;16.11;100.00;100085.44;5009774;28;20033;-80
2022/09/13 06:56:14;;;;;;;28.65;11.35;;;;;;;16.92;100.00;100112.72;5008750;28;20033;-79
2022/09/13 06:58:42;;;;;;;17.35;6.70;;;;;;;17.88;100.00;100111.38;5009091;28;20387;-79
2022/09/13 07:01:10;;;;;;;15.15;7.60;;;;;;;18.06;100.00;100088.94;5009668;28;20621;-78
2022/09/13 07:03:36;;;;;;;21.95;7.57;;;;;;;17.65;100.00;100045.38;4993945;28;20459;-79
2022/09/13 07:06:10;;;;;;;13.40;6.28;;;;;;;17.58;100.00;100035.69;5008780;28;20080;-77
2022/09/13 07:08:36;;;;;;;13.27;5.95;;;;;;;17.51;100.00;100016.88;5010290;28;20368;-81
2022/09/13 07:11:02;;;;;;;;;;;;;;;18.06;100.00;100038.44;5009746;28;20517;-79
2022/09/13 07:13:27;;;;;;;;;;;;;;;18.28;100.00;100027.13;4985794;28;20036;-78
2022/09/13 07:15:53;;;;;;;11.60;4.60;;;;;;;18.08;100.00;99974.22;5010824;28;19939;-78
2022/09/13 07:18:18;;;;;;;11.63;4.63;;;;;;;17.65;100.00;99969.81;5002046;28;20112;-81
2022/09/13 07:20:44;;;;;;;14.05;5.22;;;;;;;17.53;100.00;99982.41;5011979;28;20617;-78
2022/09/13 07:23:09;;;;;;;12.20;3.67;;;;;;;17.79;100.00;99991.19;5010572;28;20348;-79
2022/09/13 07:25:34;;;;;;;13.77;4.70;;;;;;;17.77;100.00;99944.72;5008871;28;20053;-79
2022/09/13 07:28:00;;;;;;;13.03;3.27;;;;;;;18.05;100.00;99961.19;5009220;28;20061;-80
2022/09/13 07:30:25;;;;;;;6.57;3.20;;;;;;;17.73;100.00;99911.97;4994160;28;20040;-78
2022/09/13 07:32:51;;;;;;;11.47;2.77;;;;;;;17.72;100.00;99900.34;5029277;28;20044;-80
2022/09/13 07:35:16;;;;;;;10.60;2.57;;;;;;;18.17;100.00;99928.78;5008560;28;20136;-80
2022/09/13 07:37:44;;;;;;;11.57;2.33;;;;;;;18.46;100.00;99916.22;5009418;28;20080;-78
2022/09/13 07:40:10;;;;;;;6.82;2.17;;;;;;;18.42;100.00;99811.53;5027127;28;20035;-79
2022/09/13 07:42:35;;;;;;;6.18;2.08;;;;;;;18.19;100.00;99824.03;5010551;28;20029;-80
2022/09/13 07:45:00;;;;;;;5.47;2.43;;;;;;;18.48;100.00;99792.50;4993498;28;20540;-80
2022/09/13 07:47:26;;;;;;;7.70;2.10;;;;;;;18.48;100.00;99713.31;5009177;28;20487;-79
2022/09/13 07:49:51;;;;;;;8.10;1.87;;;;;;;18.43;100.00;99697.81;5009525;28;20572;-78
2022/09/13 07:52:16;;;;;;;9.63;1.87;;;;;;;18.61;100.00;99695.97;5009492;28;20076;-79
2022/09/13 07:54:42;;;;;;;4.63;2.13;;;;;;;19.18;100.00;99712.22;4989769;28;20483;-77
2022/09/13 07:57:07;;;;;;;11.43;1.77;;;;;;;19.05;100.00;99634.06;5024291;28;20492;-80
2022/09/13 07:59:32;;;;;;;8.27;1.80;;;;;;;19.27;100.00;99624.16;5009772;28;20466;-77
2022/09/13 08:01:58;;;;;;;11.87;1.90;;;;;;;18.86;100.00;99549.66;5009639;28;20081;-79
2022/09/13 08:04:24;;;;;;;8.87;1.73;;;;;;;18.89;100.00;99558.09;5027198;28;20505;-79
2022/09/13 08:06:50;;;;;;;5.53;2.03;;;;;;;19.48;100.00;99529.72;5008823;28;20479;-78
2022/09/13 08:09:16;;;;;;;6.70;1.00;;;;;;;20.14;100.00;99609.13;4992803;28;20021;-79
2022/09/13 08:11:46;;;;;;;;;;;;;;;20.10;100.00;99494.19;4980589;28;20092;-78
2022/09/13 08:14:13;;;;;;;8.35;1.52;;;;;;;20.42;100.00;99450.84;5024548;28;19913;-79
2022/09/13 08:16:39;;;;;;;7.57;1.67;;;;;;;20.91;100.00;99425.47;5027811;28;20033;-78
2022/09/13 08:19:06;;;;;;;9.73;1.63;;;;;;;20.91;100.00;99270.84;5028414;28;20021;-79
2022/09/13 08:21:35;;;;;;;11.68;1.40;;;;;;;20.22;100.00;99107.38;5009180;28;20360;-79
2022/09/13 08:24:01;;;;;;;9.00;1.42;;;;;;;20.64;100.00;99439.94;5010106;28;20071;-78
2022/09/13 08:26:29;;;;;;;9.43;1.80;;;;;;;20.48;100.00;99237.56;4993517;28;20057;-77
2022/09/13 08:28:59;;;;;;;7.68;1.80;;;;;;;21.26;100.00;99263.88;5008950;28;20028;-80
2022/09/13 08:31:25;;;;;;;9.98;1.77;;;;;;;21.13;100.00;99210.13;5011838;28;20056;-78
2022/09/13 08:33:52;;;;;;;7.70;2.40;;;;;;;20.54;100.00;99014.22;5032359;28;20475;-78
2022/09/13 08:36:18;;;;;;;8.98;1.67;;;;;;;21.45;100.00;99294.88;5014373;28;20042;-78
2022/09/13 08:38:49;;;;;;;6.20;1.30;;;;;;;21.64;100.00;99123.28;5014888;28;20513;-79
2022/09/13 08:41:39;;;;;;;8.75;1.70;;;;;;;21.31;100.00;98935.47;5014431;28;20548;-79
2022/09/13 08:44:32;;;;;;;7.30;1.33;;;;;;;21.97;100.00;99142.75;5014128;28;20052;-78
2022/09/13 08:47:19;;;;;;;11.63;1.90;;;;;;;21.27;96.29;98908.06;5032430;28;20034;-77
2022/09/13 08:49:51;;;;;;;6.47;1.40;;;;;;;19.89;100.00;99008.38;5013124;28;20060;-77
2022/09/13 08:52:31;;;;;;;9.93;1.60;;;;;;;19.48;100.00;99216.59;5031450;28;20064;-77
2022/09/13 08:55:02;;;;;;;6.40;1.23;;;;;;;18.81;100.00;99285.44;5029911;28;20482;-79
2022/09/13 08:57:33;;;;;;;8.27;1.58;;;;;;;18.31;100.00;99381.75;5030435;28;20144;-77
2022/09/13 09:00:16;;;;;;;9.23;1.83;;;;;;;18.08;100.00;99579.88;5030646;28;20033;-78
2022/09/13 09:02:58;;;;;;;6.68;1.23;;;;;;;19.24;100.00;99805.94;4997832;28;20029;-78
2022/09/13 09:05:29;;;;;;;8.18;1.55;;;;;;;21.14;100.00;99624.22;5030997;28;20029;-78
2022/09/13 09:08:20;;;;;;;4.65;1.17;;;;;;;22.22;95.48;99177.19;5030217;28;20025;-78
2022/09/13 09:10:49;;;;;;;8.05;1.20;;;;;;;22.41;87.49;98924.56;4990889;28;20095;-77
2022/09/13 09:13:27;;;;;;;4.88;1.38;;;;;;;20.86;89.53;98775.31;5030492;28;20073;-76
2022/09/13 09:15:59;;;;;;;7.00;1.38;;;;;;;21.13;98.77;99307.81;5030311;28;20113;-78
2022/09/13 09:18:37;;;;;;;5.40;0.95;;;;;;;21.47;88.87;98950.63;5012654;28;20512;-77
2022/09/13 09:21:05;;;;;;;7.10;1.38;;;;;;;22.61;85.08;99054.09;4995545;28;20033;-79
2022/09/13 09:23:38;;;;;;;6.10;1.40;;;;;;;23.18;81.95;99058.81;5021710;28;20048;-77
2022/09/13 09:26:17;;;;;;;4.53;1.27;;;;;;;22.91;77.33;98770.06;5029338;28;20040;-79
2022/09/13 09:28:46;;;;;;;7.40;1.15;;;;;;;23.14;77.71;98871.88;5013652;28;20029;-79
2022/09/13 09:31:31;;;;;;;5.78;1.30;;;;;;;21.28;76.67;98425.81;5029260;28;20065;-78
2022/09/13 09:33:59;;;;;;;8.80;1.60;;;;;;;20.75;82.43;98781.06;5011852;28;20029;-77
2022/09/13 09:36:38;;;;;;;12.18;2.08;;;;;;;20.29;89.87;99109.03;5027761;28;20382;-77
2022/09/13 09:39:05;;;;;;;6.15;2.05;;;;;;;20.47;91.87;99216.97;4995032;28;20041;-78
2022/09/13 09:41:33;;;;;;;4.57;0.88;;;;;;;20.86;85.53;99051.13;5019929;28;20045;-78
2022/09/13 09:44:21;;;;;;;14.18;1.60;;;;;;;19.86;89.93;99057.66;5011234;28;20029;-78
2022/09/13 09:47:01;;;;;;;10.18;1.77;;;;;;;20.79;90.34;99370.59;5029096;28;20512;-79
2022/09/13 09:52:35;;;;;;;6.90;1.20;;;;;;;22.54;79.77;99136.00;5029138;28;20148;-78
2022/09/13 09:55:28;;;;;;;10.23;1.73;;;;;;;22.20;74.83;98807.00;5011573;28;20029;-77
2022/09/13 09:58:07;;;;;;;11.52;2.03;;;;;;;22.54;74.72;98927.41;5007036;28;20034;-77
2022/09/13 10:00:35;;;;;;;8.27;1.42;;;;;;;21.50;79.35;98998.94;5003443;28;20037;-78
2022/09/13 10:03:15;;;;;;;5.88;1.20;;;;;;;21.65;81.13;99206.34;5011400;28;20080;-77
2022/09/13 10:05:42;;;;;;;6.78;1.20;;;;;;;22.34;78.03;99161.41;5022225;28;20043;-79
2022/09/13 10:08:21;;;;;;;;;;;;;;;21.87;77.57;99019.44;4992320;28;20133;-79
2022/09/13 10:10:58;;;;;;;7.20;1.80;;;;;;;22.25;78.25;99231.81;5028527;28;19913;-78
2022/09/13 10:13:24;;;;;;;6.38;1.13;;;;;;;23.03;74.70;99162.38;5010784;28;20435;-75
2022/09/13 10:16:17;;;;;;;7.45;1.60;;;;;;;21.56;74.16;98773.56;5010084;28;20033;-75
2022/09/13 10:18:42;;;;;;;6.85;1.50;;;;;;;21.76;79.72;99237.84;4993933;28;20046;-77
2022/09/13 10:21:17;;;;;;;4.87;1.30;;;;;;;21.56;81.33;99330.19;5025537;28;20024;-76
2022/09/13 10:23:43;;;;;;;9.75;1.10;;;;;;;20.76;79.53;99002.31;5010213;28;20037;-80
2022/09/13 10:26:13;;;;;;;5.70;1.63;;;;;;;20.61;80.65;99106.97;4998548;28;20041;-75
2022/09/13 10:29:09;;;;;;;4.18;1.17;;;;;;;20.71;85.13;99426.16;4993996;28;20397;-75
2022/09/13 10:31:44;;;;;;;7.95;1.25;;;;;;;20.72;78.50;98993.09;5002620;28;20029;-75
2022/09/13 10:34:09;;;;;;;4.07;1.45;;;;;;;21.68;76.82;99135.19;4993613;28;20033;-76
2022/09/13 10:36:35;;;;;;;11.97;1.63;;;;;;;22.06;73.16;98969.91;5009793;28;20534;-75
2022/09/13 10:39:05;;;;;;;4.80;1.05;;;;;;;22.45;73.98;99164.84;4993670;28;20033;-75
2022/09/13 10:41:37;;;;;;;5.88;1.42;;;;;;;22.62;70.71;98971.44;5002028;28;20026;-76
2022/09/13 10:44:05;;;;;;;7.32;1.25;;;;;;;23.41;70.23;99118.22;5009981;28;20084;-76
2022/09/13 10:46:35;;;;;;;9.98;1.42;;;;;;;24.00;68.84;99187.97;5019512;28;20029;-78
2022/09/13 10:49:00;;;;;;;7.18;1.33;;;;;;;22.44;69.16;98772.53;5002040;28;20072;-76
2022/09/13 10:51:26;;;;;;;5.20;1.52;;;;;;;22.92;68.17;98892.25;4993972;28;20017;-76
2022/09/13 10:54:06;;;;;;;3.87;0.73;;;;;;;22.32;65.30;98457.63;5027239;28;20033;-75
2022/09/13 10:56:31;;;;;;;11.52;1.65;;;;;;;22.34;64.79;98444.53;5001357;28;20038;-75
2022/09/13 10:59:22;;;;;;;4.47;0.80;;;;;;;23.31;66.01;98902.13;5009585;28;20045;-76
2022/09/13 11:02:26;;;;;;;6.30;1.20;;;;;;;24.04;63.26;98806.59;4992835;28;20050;-75
2022/09/13 11:05:08;;;;;;;5.90;1.00;;;;;;;23.78;63.36;98771.59;5008863;28;20048;-76
2022/09/13 11:07:54;;;;;;;8.27;1.27;;;;;;;23.45;62.01;98525.66;5010117;28;20433;-75
2022/09/13 11:10:42;;;;;;;9.93;1.23;;;;;;;21.99;63.81;98299.16;5008497;28;20041;-75
2022/09/13 11:13:29;;;;;;;7.25;1.52;;;;;;;22.14;66.56;98741.00;5025809;28;20029;-78
2022/09/13 11:16:13;;;;;;;6.53;1.00;;;;;;;22.81;65.09;98792.78;5021427;28;20142;-76
2022/09/13 11:18:44;;;;;;;6.72;1.67;;;;;;;22.07;64.63;98520.47;5026296;28;20506;-75
2022/09/13 11:21:32;;;;;;;7.07;0.80;;;;;;;20.33;67.50;98338.66;4992125;28;20071;-75
2022/09/13 11:24:07;;;;;;;5.75;1.00;;;;;;;20.08;72.77;98848.88;5026681;28;20029;-75
2022/09/13 11:26:40;;;;;;;6.97;0.90;;;;;;;19.99;70.85;98648.22;5008085;28;20082;-78
2022/09/13 11:29:47;;;;;;;6.80;0.82;;;;;;;20.06;72.22;98834.78;5008583;28;20068;-77
2022/09/13 11:32:28;;;;;;;7.18;1.15;;;;;;;19.81;72.94;98824.78;5026071;28;20033;-78
2022/09/13 11:35:33;;;;;;;6.55;1.30;;;;;;;21.34;73.91;99395.53;5007976;28;20029;-78
2022/09/13 11:37:58;;;;;;;10.75;1.58;;;;;;;21.26;70.36;99025.06;5025795;28;20065;-75
2022/09/13 11:40:48;;;;;;;6.50;0.90;;;;;;;21.89;66.36;98856.16;5025859;28;20061;-76